Huvudsida
METAR-TAF:

METAR-TAF

Flygplatser :

Brunei flygplats

Brunei, Brunei

latitud: 04-56N, longitud: 114-56E, höjd: 22 m

Aktuellt väderrapport

Denna rapport gjordes för 19 minuter sedan, klockan 07:30 UTC
Vind 5 kt från väst/nordväst
Temperatur 31°C
Fuktighet 63%
Tryck 1008 hPa
Sikt 10 km eller mer
Spridda moln på en höjd av 1600 ft
Få moln på en höjd av 1700 ft, Cumulonimbus.
Brutna moln på en höjd av 30000 ft

METAR: WBSB 250730Z 30005KT 9999 SCT016 FEW017CB BKN300 31/23 Q1008 NOSIG

Tid: 15:49 (07:49 UTC)

Väderprognos

Denna rapport gjordes för 2 timmar och 49 minuter sedan, klockan 05:00 UTC
Prognos gäller från 25 kl. 06 UTC till 26 kl. 12 UTC
Vind 8 kt från nordväst
Sikt 10 km eller mer
Få moln på en höjd av 1600 ft
Få moln på en höjd av 1700 ft, Cumulonimbus.
Blir
från 25 kl. 12 UTC till 25 kl. 14 UTC
Vind 3 kt från syd
Få moln på en höjd av 1500 ft

TAF: WBSB 250500Z 2506/2612 32008KT 9999 FEW016 FEW017CB BECMG 2512/2514 19003KT FEW015

Aktuella väderrapporter och prognoser från 4000 flygplatser (METAR- och TAF-rapporter).

De tillgängliga stationerna syns som gula och röda prickar på kartan.

För musen över prickarna för att se namnen på stationerna.

Klicka sedan för att få väderrapporter och prognoser.

För att ändra kartan: Klicka på de gröna knapparna med ett svart kors på för att zooma in; den gröna knappen med ett streck på för att zooma ut; eller på de gröna pilarna för angränsande kartor.


METAR-TAF: